Bluewater, New Mexico
Current Conditions -  °F | °C
As of 12:37 AM on Sunday 23 Nov 2014 (Local Time) from KGNT Reporting Station
Scattered Clouds Scattered Clouds  
Wind Chill: 35°   Ceiling: Unl
Heat Index: 43°   Visibility: 10mi
Dew Point: 12°   Wind: 15mph
Humidity: 29%   Direction: 270°W
Pressure: 29.87"   Gusts: 25mph
Location:  35.26°N, 107.99°W
Report Text: KGNT 230737Z AUTO 27013G22KT 10SM SCT080 SCT090 06/M11 A2987 RMK AO2
Loading
Personal Weather Stations






























Interactive Weather Map New forecast layout! Learn more

10-Day Weather Forecast

Advertisements
Track Severe Weather on mobile